Time;durP1;ratioP1;P1;durP2;ratioP2;P2;SDS_P1;SDS_P2;PMS_P1;PMS_P2;Temp;Humidity;BMP_temperature;BMP_pressure;BME280_temperature;BME280_humidity;BME280_pressure;Samples;Min_cycle;Max_cycle;Signal;HPM_P1;HPM_P2
2022/03/15 00:01:13;;;;;;;13.82;7.57;;;10.80;99.90;;;;;;5055792;28;20108;-75
2022/03/15 00:03:38;;;;;;;12.88;6.50;;;10.70;99.90;;;;;;5054480;28;20040;-74
2022/03/15 00:06:04;;;;;;;15.82;7.25;;;10.80;99.90;;;;;;5068808;28;20055;-74
2022/03/15 00:08:31;;;;;;;22.10;7.75;;;10.90;99.90;;;;;;5038187;28;20109;-74
2022/03/15 00:11:02;;;;;;;16.45;7.72;;;10.50;99.90;;;;;;5056617;28;20073;-74
2022/03/15 00:13:28;;;;;;;15.57;7.57;;;11.00;99.90;;;;;;5061061;28;20144;-74
2022/03/15 00:15:55;;;;;;;15.45;7.32;;;10.70;99.90;;;;;;5067880;28;20103;-74
2022/03/15 00:18:21;;;;;;;19.33;7.60;;;11.10;99.90;;;;;;5073578;28;20216;-74
2022/03/15 00:20:49;;;;;;;16.50;8.00;;;10.80;99.90;;;;;;5045413;28;20222;-74
2022/03/15 00:23:15;;;;;;;18.73;7.22;;;11.20;99.90;;;;;;5059958;28;20067;-75
2022/03/15 00:25:40;;;;;;;16.45;7.28;;;10.70;99.90;;;;;;5041317;28;20335;-75
2022/03/15 00:28:06;;;;;;;19.92;7.57;;;10.80;99.90;;;;;;5058492;28;20032;-75
2022/03/15 00:30:32;;;;;;;13.48;7.78;;;11.20;99.90;;;;;;5058483;28;20104;-75
2022/03/15 00:32:57;;;;;;;19.27;8.50;;;11.20;99.90;;;;;;5070405;28;20033;-74
2022/03/15 00:35:24;;;;;;;20.33;7.90;;;11.20;99.90;;;;;;5051811;28;20334;-75
2022/03/15 00:37:54;;;;;;;17.10;7.63;;;11.30;99.90;;;;;;5041814;28;20040;-77
2022/03/15 00:40:22;;;;;;;18.30;8.07;;;10.90;99.90;;;;;;5050922;28;20024;-74
2022/03/15 00:42:51;;;;;;;18.90;8.20;;;11.50;99.90;;;;;;5071028;28;20032;-75
2022/03/15 00:45:18;;;;;;;15.63;8.18;;;11.10;99.90;;;;;;5076914;28;20028;-75
2022/03/15 00:48:00;;;;;;;20.05;8.93;;;11.20;99.90;;;;;;5077092;28;20046;-75
2022/03/15 00:50:29;;;;;;;17.10;9.13;;;11.70;99.90;;;;;;5048182;28;20045;-75
2022/03/15 00:52:59;;;;;;;19.90;8.95;;;11.50;99.90;;;;;;5061167;28;20048;-75
2022/03/15 00:55:25;;;;;;;19.02;8.15;;;11.20;99.90;;;;;;5042213;28;20304;-75
2022/03/15 00:57:51;;;;;;;23.25;8.88;;;11.60;99.90;;;;;;5073645;28;20037;-75
2022/03/15 01:00:20;;;;;;;17.58;10.23;;;11.60;99.90;;;;;;5066351;28;20056;-74
2022/03/15 01:02:46;;;;;;;18.58;8.98;;;11.50;99.90;;;;;;5074835;28;20293;-74
2022/03/15 01:05:11;;;;;;;19.77;9.52;;;11.50;99.90;;;;;;5064793;28;21244;-74
2022/03/15 01:07:40;;;;;;;16.02;8.80;;;11.40;99.90;;;;;;5066437;28;20048;-74
2022/03/15 01:10:17;;;;;;;17.20;8.55;;;11.20;99.90;;;;;;5050196;28;20265;-75
2022/03/15 01:12:52;;;;;;;18.33;9.15;;;11.80;99.90;;;;;;5045453;28;20045;-75
2022/03/15 01:15:23;;;;;;;17.13;8.60;;;11.60;99.90;;;;;;5056623;28;20041;-76
2022/03/15 01:17:49;;;;;;;20.15;9.50;;;11.70;99.90;;;;;;5050799;28;20036;-75
2022/03/15 01:20:15;;;;;;;18.27;9.20;;;12.10;99.90;;;;;;5055067;28;20280;-75
2022/03/15 01:22:57;;;;;;;18.23;9.68;;;11.70;99.90;;;;;;5047579;28;20111;-75
2022/03/15 01:25:25;;;;;;;15.50;8.50;;;12.10;99.90;;;;;;5046159;28;20052;-74
2022/03/15 01:27:52;;;;;;;26.77;10.55;;;12.10;99.90;;;;;;5028250;28;20064;-74
2022/03/15 01:30:18;;;;;;;19.92;9.07;;;11.90;99.90;;;;;;5060094;28;20200;-72
2022/03/15 01:32:44;;;;;;;15.65;8.85;;;11.90;99.90;;;;;;5063573;28;20246;-72
2022/03/15 01:35:09;;;;;;;15.55;9.25;;;12.30;99.90;;;;;;5050290;28;20068;-73
2022/03/15 01:37:35;;;;;;;14.05;8.57;;;12.30;99.90;;;;;;5072430;28;20040;-73
2022/03/15 01:40:01;;;;;;;16.50;8.93;;;11.80;99.90;;;;;;5057681;28;20037;-73
2022/03/15 01:42:27;;;;;;;24.20;10.15;;;11.80;99.90;;;;;;5056043;28;20040;-73
2022/03/15 01:44:53;;;;;;;22.15;8.80;;;11.90;99.90;;;;;;5051649;28;20275;-74
2022/03/15 01:47:19;;;;;;;17.13;9.40;;;12.40;99.90;;;;;;5062817;28;20037;-74
2022/03/15 01:49:45;;;;;;;15.75;9.98;;;12.10;99.90;;;;;;5045211;28;20067;-73
2022/03/15 01:52:13;;;;;;;18.60;9.13;;;12.60;99.90;;;;;;5050835;28;20104;-74
2022/03/15 01:54:40;;;;;;;19.85;9.77;;;12.30;99.90;;;;;;5051393;28;20070;-74
2022/03/15 01:57:07;;;;;;;18.77;9.63;;;12.60;99.90;;;;;;5070196;28;20368;-74
2022/03/15 01:59:33;;;;;;;14.32;9.07;;;12.10;99.90;;;;;;5040928;28;20051;-74
2022/03/15 02:01:59;;;;;;;21.55;9.52;;;12.90;99.90;;;;;;5066414;28;20068;-75
2022/03/15 02:04:25;;;;;;;20.27;10.43;;;12.50;99.90;;;;;;5030649;28;20047;-73
2022/03/15 02:07:03;;;;;;;20.30;9.77;;;12.40;99.90;;;;;;5043556;28;20036;-75
2022/03/15 02:09:32;;;;;;;18.83;9.77;;;12.50;99.90;;;;;;5054909;28;20342;-74
2022/03/15 02:11:58;;;;;;;24.08;11.02;;;12.30;99.90;;;;;;5051251;28;20063;-75
2022/03/15 02:14:25;;;;;;;19.25;10.20;;;12.40;99.90;;;;;;5065377;28;20094;-74
2022/03/15 02:16:51;;;;;;;19.02;11.43;;;12.50;99.90;;;;;;5051206;28;20063;-74
2022/03/15 02:19:16;;;;;;;21.48;10.27;;;12.90;99.90;;;;;;5067551;28;20323;-74
2022/03/15 02:21:42;;;;;;;23.30;11.18;;;12.30;99.90;;;;;;5066635;28;20043;-75
2022/03/15 02:24:08;;;;;;;17.70;9.77;;;13.20;99.90;;;;;;5027864;28;20044;-75
2022/03/15 02:26:34;;;;;;;15.50;9.00;;;13.00;99.90;;;;;;5046321;28;20082;-74
2022/03/15 02:28:59;;;;;;;19.02;9.10;;;13.30;99.90;;;;;;5061613;28;20050;-74
2022/03/15 02:31:25;;;;;;;13.70;9.57;;;13.20;99.90;;;;;;5063958;28;20044;-74
2022/03/15 02:33:51;;;;;;;18.48;11.45;;;12.80;99.90;;;;;;5071178;28;20108;-75
2022/03/15 02:36:17;;;;;;;19.40;10.38;;;12.60;99.90;;;;;;5061744;28;20036;-75
2022/03/15 02:38:44;;;;;;;19.13;11.35;;;12.60;99.90;;;;;;5048454;28;20350;-75
2022/03/15 02:41:11;;;;;;;21.27;11.35;;;13.50;99.90;;;;;;5029624;28;20419;-74
2022/03/15 02:43:37;;;;;;;22.15;11.02;;;13.00;99.90;;;;;;5044655;28;20060;-75
2022/03/15 02:46:02;;;;;;;19.10;10.40;;;12.60;99.90;;;;;;5063238;28;20046;-75
2022/03/15 02:48:28;;;;;;;17.23;11.02;;;13.60;99.90;;;;;;5066087;28;20068;-76
2022/03/15 02:50:55;;;;;;;20.30;11.00;;;13.30;99.90;;;;;;5042718;28;20107;-74
2022/03/15 02:53:20;;;;;;;21.95;10.35;;;12.70;99.90;;;;;;5071674;28;20036;-74
2022/03/15 02:55:49;;;;;;;22.55;11.95;;;13.40;99.90;;;;;;5075832;28;20102;-75
2022/03/15 02:58:15;;;;;;;24.00;11.10;;;13.00;99.90;;;;;;5033601;28;20060;-75
2022/03/15 03:00:41;;;;;;;21.38;13.52;;;13.50;99.90;;;;;;5064980;28;20035;-74
2022/03/15 03:03:07;;;;;;;19.10;12.32;;;13.80;99.90;;;;;;5061909;28;20249;-73
2022/03/15 03:05:32;;;;;;;23.23;12.40;;;13.10;99.90;;;;;;5052593;28;20310;-74
2022/03/15 03:08:00;;;;;;;20.10;11.88;;;13.60;99.90;;;;;;5029906;28;20048;-73
2022/03/15 03:10:26;;;;;;;20.15;12.05;;;13.30;99.90;;;;;;5051373;28;20298;-73
2022/03/15 03:12:57;;;;;;;20.83;12.90;;;13.20;99.90;;;;;;5069667;28;20055;-73
2022/03/15 03:15:22;;;;;;;21.75;12.38;;;13.10;99.90;;;;;;5045226;28;20039;-75
2022/03/15 03:17:48;;;;;;;20.38;9.48;;;13.70;99.90;;;;;;5076701;28;20064;-73
2022/03/15 03:20:18;;;;;;;14.93;9.82;;;12.80;99.90;;;;;;5038477;28;20049;-74
2022/03/15 03:22:45;;;;;;;16.70;9.25;;;13.00;99.90;;;;;;5066221;28;20109;-74
2022/03/15 03:25:12;;;;;;;18.02;9.43;;;13.50;99.90;;;;;;5062028;28;20044;-73
2022/03/15 03:27:38;;;;;;;17.13;9.38;;;13.60;99.90;;;;;;5049702;28;20036;-73
2022/03/15 03:30:04;;;;;;;19.02;10.23;;;13.70;99.90;;;;;;5052311;28;20045;-73
2022/03/15 03:32:30;;;;;;;16.90;9.07;;;13.30;99.90;;;;;;5061093;28;20090;-73
2022/03/15 03:34:57;;;;;;;16.92;10.45;;;13.60;99.90;;;;;;5048228;28;20041;-74
2022/03/15 03:37:24;;;;;;;19.70;10.60;;;13.70;99.90;;;;;;5067414;28;20040;-74
2022/03/15 03:39:51;;;;;;;16.17;10.00;;;13.30;99.90;;;;;;5045040;28;20059;-73
2022/03/15 03:42:18;;;;;;;17.65;10.38;;;13.10;99.90;;;;;;5057041;28;20028;-74
2022/03/15 03:44:44;;;;;;;17.77;10.52;;;14.00;99.90;;;;;;5068143;28;20041;-74
2022/03/15 03:47:11;;;;;;;17.92;10.07;;;14.00;99.90;;;;;;5070699;28;20040;-74
2022/03/15 03:49:38;;;;;;;17.45;10.57;;;13.50;99.90;;;;;;5077569;28;20470;-72
2022/03/15 03:52:05;;;;;;;16.92;10.55;;;14.20;99.90;;;;;;5064604;28;20037;-75
2022/03/15 03:54:32;;;;;;;19.65;11.05;;;13.30;99.90;;;;;;5041141;28;20060;-73
2022/03/15 03:56:57;;;;;;;15.77;10.57;;;13.60;99.90;;;;;;5059160;28;20045;-74
2022/03/15 03:59:23;;;;;;;19.70;12.40;;;13.80;99.90;;;;;;5057153;28;20049;-75
2022/03/15 04:01:49;;;;;;;20.05;11.50;;;14.40;99.90;;;;;;5053931;28;20112;-76
2022/03/15 04:04:15;;;;;;;18.88;11.57;;;14.50;99.90;;;;;;5069338;28;20117;-74
2022/03/15 04:06:41;;;;;;;18.48;11.68;;;14.20;99.90;;;;;;5065359;28;20305;-75
2022/03/15 04:09:09;;;;;;;18.60;11.75;;;13.50;99.90;;;;;;5055479;28;20083;-74
2022/03/15 04:11:36;;;;;;;22.02;12.55;;;13.50;99.90;;;;;;5064303;28;20063;-72
2022/03/15 04:14:03;;;;;;;21.60;13.35;;;14.50;99.90;;;;;;5057667;28;20325;-73
2022/03/15 04:16:30;;;;;;;23.52;14.38;;;14.30;99.90;;;;;;5045344;28;20048;-74
2022/03/15 04:18:56;;;;;;;22.52;13.43;;;14.00;99.90;;;;;;5076642;28;20068;-74
2022/03/15 04:21:25;;;;;;;24.10;13.15;;;14.30;99.90;;;;;;5055745;28;20366;-74
2022/03/15 04:23:55;;;;;;;25.92;14.02;;;14.20;99.90;;;;;;5060151;28;20071;-73
2022/03/15 04:26:22;;;;;;;23.75;14.10;;;14.50;99.90;;;;;;5064091;28;20116;-73
2022/03/15 04:28:48;;;;;;;23.33;14.70;;;14.30;99.90;;;;;;5071643;28;20032;-75
2022/03/15 04:31:14;;;;;;;21.77;13.32;;;14.30;99.90;;;;;;5037770;28;20356;-75
2022/03/15 04:33:40;;;;;;;24.45;13.52;;;13.70;99.90;;;;;;5038394;28;20343;-72
2022/03/15 04:36:06;;;;;;;22.25;13.18;;;14.30;99.90;;;;;;5069891;28;20060;-73
2022/03/15 04:38:31;;;;;;;20.40;12.52;;;13.90;99.90;;;;;;5041734;28;20219;-74
2022/03/15 04:40:58;;;;;;;19.92;12.57;;;15.00;99.90;;;;;;5051821;28;20040;-76
2022/03/15 04:43:24;;;;;;;19.00;11.75;;;14.40;99.90;;;;;;5062639;28;20580;-75
2022/03/15 04:45:50;;;;;;;18.80;11.48;;;14.10;99.90;;;;;;5046719;28;20020;-73
2022/03/15 04:48:18;;;;;;;17.65;11.13;;;14.00;99.90;;;;;;5048151;28;20093;-73
2022/03/15 04:50:44;;;;;;;20.80;11.35;;;14.00;99.90;;;;;;5072332;28;20059;-75
2022/03/15 04:53:10;;;;;;;17.00;10.07;;;14.70;99.90;;;;;;5060447;28;20036;-76
2022/03/15 04:55:36;;;;;;;24.17;12.15;;;14.10;99.90;;;;;;5074995;28;20049;-75
2022/03/15 04:58:01;;;;;;;20.42;12.55;;;13.50;99.90;;;;;;5078838;28;20345;-75
2022/03/15 05:00:27;;;;;;;16.85;11.38;;;14.40;99.90;;;;;;5041564;28;20108;-76
2022/03/15 05:02:53;;;;;;;15.93;10.55;;;13.70;99.90;;;;;;5036116;28;20036;-73
2022/03/15 05:05:19;;;;;;;18.02;11.43;;;14.20;99.90;;;;;;5073642;28;20334;-71
2022/03/15 05:07:44;;;;;;;15.13;9.55;;;13.40;99.90;;;;;;5040956;28;20230;-75
2022/03/15 05:12:54;;;;;;;16.55;11.18;;;13.20;99.90;;;;;;5068406;28;20146;-74
2022/03/15 05:15:20;;;;;;;25.90;13.32;;;14.60;99.90;;;;;;5032399;28;20040;-74
2022/03/15 05:17:46;;;;;;;27.25;15.20;;;13.50;99.90;;;;;;5068373;28;20220;-73
2022/03/15 05:20:14;;;;;;;23.98;14.00;;;14.60;99.90;;;;;;5076289;28;20066;-73
2022/03/15 05:22:40;;;;;;;24.17;13.75;;;14.80;99.90;;;;;;5062733;28;20261;-73
2022/03/15 05:25:13;;;;;;;25.05;14.70;;;13.80;99.90;;;;;;5058119;28;20073;-74
2022/03/15 05:27:40;;;;;;;29.15;14.35;;;14.50;99.90;;;;;;5076613;28;20043;-74
2022/03/15 05:30:06;;;;;;;24.48;13.77;;;14.90;99.90;;;;;;5067685;28;20053;-74
2022/03/15 05:32:32;;;;;;;20.88;14.05;;;14.60;99.90;;;;;;5068644;28;20064;-74
2022/03/15 05:34:59;;;;;;;26.48;14.45;;;14.90;99.90;;;;;;5067188;28;20085;-74
2022/03/15 05:37:25;;;;;;;24.05;13.07;;;14.80;99.90;;;;;;5074292;28;20047;-74
2022/03/15 05:39:51;;;;;;;28.38;15.68;;;14.50;99.90;;;;;;5044982;28;20222;-74
2022/03/15 05:42:18;;;;;;;26.13;14.27;;;15.30;99.90;;;;;;5045643;28;20271;-74
2022/03/15 05:44:44;;;;;;;28.30;14.85;;;15.00;99.90;;;;;;5026236;28;20040;-75
2022/03/15 05:47:10;;;;;;;32.72;14.93;;;14.90;99.90;;;;;;5070240;28;20055;-75
2022/03/15 05:49:35;;;;;;;29.40;15.18;;;15.00;99.90;;;;;;5075801;28;20032;-75
2022/03/15 05:52:03;;;;;;;28.17;14.40;;;14.40;99.90;;;;;;5067845;28;20049;-75
2022/03/15 05:54:29;;;;;;;28.35;14.55;;;14.80;99.90;;;;;;5058502;28;20204;-75
2022/03/15 05:56:55;;;;;;;30.20;16.38;;;14.80;99.90;;;;;;5051398;28;20127;-75
2022/03/15 05:59:21;;;;;;;26.80;14.65;;;14.20;99.90;;;;;;5073083;28;20032;-75
2022/03/15 06:01:47;;;;;;;27.52;14.57;;;14.80;99.90;;;;;;5036074;28;20024;-75
2022/03/15 06:04:16;;;;;;;23.60;14.25;;;14.20;99.90;;;;;;5062110;28;20032;-75
2022/03/15 06:06:41;;;;;;;27.15;14.75;;;14.20;99.90;;;;;;5055627;28;20028;-75
2022/03/15 06:09:07;;;;;;;26.55;14.35;;;14.40;99.90;;;;;;5044601;28;20087;-74
2022/03/15 06:11:35;;;;;;;28.38;15.20;;;14.60;99.90;;;;;;5063822;28;20331;-74
2022/03/15 06:14:01;;;;;;;30.67;15.85;;;14.10;99.90;;;;;;5031810;28;20278;-74
2022/03/15 06:16:27;;;;;;;26.40;14.55;;;14.20;99.90;;;;;;5052385;28;20342;-74
2022/03/15 06:18:52;;;;;;;29.33;14.82;;;13.70;99.90;;;;;;5047526;28;20047;-75
2022/03/15 06:21:41;;;;;;;31.33;15.63;;;13.80;99.90;;;;;;5049527;28;20200;-74
2022/03/15 06:24:08;;;;;;;30.80;16.35;;;14.20;99.90;;;;;;5059916;28;20119;-76
2022/03/15 06:26:36;;;;;;;31.15;16.42;;;14.20;99.90;;;;;;5070905;28;20050;-73
2022/03/15 06:29:03;;;;;;;34.97;16.92;;;13.80;99.90;;;;;;5029714;28;20055;-74
2022/03/15 06:31:30;;;;;;;30.05;16.92;;;13.80;99.90;;;;;;5060054;28;20033;-74
2022/03/15 06:33:56;;;;;;;33.03;18.17;;;14.10;99.90;;;;;;5065542;28;20138;-75
2022/03/15 06:36:21;;;;;;;33.70;19.33;;;14.30;99.90;;;;;;5051373;28;20033;-74
2022/03/15 06:38:50;;;;;;;37.88;18.67;;;13.50;99.90;;;;;;5059788;28;20033;-74
2022/03/15 06:41:15;;;;;;;35.22;17.52;;;13.70;99.90;;;;;;5074138;28;20032;-74
2022/03/15 06:43:41;;;;;;;34.90;18.77;;;13.50;99.90;;;;;;5041945;28;20116;-74
2022/03/15 06:46:08;;;;;;;33.45;18.60;;;13.40;99.90;;;;;;5075317;28;20047;-74
2022/03/15 06:48:37;;;;;;;33.15;16.88;;;13.80;99.90;;;;;;5060357;28;20037;-73
2022/03/15 06:51:03;;;;;;;31.55;19.15;;;13.00;99.90;;;;;;5050444;28;20072;-74
2022/03/15 06:53:29;;;;;;;35.63;20.02;;;14.10;99.90;;;;;;5075376;28;20045;-74
2022/03/15 06:55:55;;;;;;;30.77;17.33;;;13.80;99.90;;;;;;5060356;28;20056;-73
2022/03/15 06:58:21;;;;;;;37.53;19.55;;;14.30;99.90;;;;;;5053073;28;20048;-74
2022/03/15 07:00:47;;;;;;;36.03;18.70;;;13.10;99.90;;;;;;5073466;28;20032;-73
2022/03/15 07:03:21;;;;;;;33.42;18.80;;;14.30;99.90;;;;;;5050083;28;20089;-73
2022/03/15 07:05:53;;;;;;;40.00;20.60;;;13.80;99.90;;;;;;5076908;28;20250;-74
2022/03/15 07:08:19;;;;;;;30.35;18.85;;;13.20;99.90;;;;;;5070801;28;20056;-74
2022/03/15 07:10:44;;;;;;;33.80;19.13;;;14.40;99.90;;;;;;5076776;28;20049;-73
2022/03/15 07:13:10;;;;;;;32.95;18.25;;;13.80;99.90;;;;;;5029393;28;20037;-72
2022/03/15 07:15:36;;;;;;;32.17;19.40;;;13.60;99.90;;;;;;5075999;28;20207;-72
2022/03/15 07:18:02;;;;;;;39.35;21.42;;;13.90;99.90;;;;;;5061608;28;20226;-73
2022/03/15 07:20:28;;;;;;;34.08;20.08;;;13.90;99.90;;;;;;5050142;28;20101;-74
2022/03/15 07:22:53;;;;;;;42.33;22.17;;;13.10;99.90;;;;;;5097152;28;20300;-73
2022/03/15 07:25:20;;;;;;;37.60;22.52;;;13.50;99.90;;;;;;5066143;28;20201;-74
2022/03/15 07:27:47;;;;;;;39.22;21.42;;;13.80;99.90;;;;;;5082047;28;20451;-74
2022/03/15 07:30:13;;;;;;;42.15;23.17;;;14.40;99.90;;;;;;5055752;28;20055;-76
2022/03/15 07:32:39;;;;;;;45.33;25.25;;;13.20;99.90;;;;;;5066275;28;20218;-73
2022/03/15 07:35:05;;;;;;;42.78;22.80;;;13.00;99.90;;;;;;5081546;28;20048;-75
2022/03/15 07:37:34;;;;;;;40.58;23.42;;;13.40;99.90;;;;;;5082825;28;20083;-74
2022/03/15 07:40:00;;;;;;;38.63;22.17;;;14.70;99.90;;;;;;5040070;28;20238;-74
2022/03/15 07:42:28;;;;;;;35.47;22.67;;;14.10;99.90;;;;;;5062571;28;20100;-74
2022/03/15 07:44:53;;;;;;;43.22;23.38;;;14.00;99.90;;;;;;5064620;28;20036;-75
2022/03/15 07:47:19;;;;;;;44.97;24.27;;;13.90;99.90;;;;;;5066010;28;20068;-74
2022/03/15 07:49:47;;;;;;;42.70;23.83;;;13.30;99.90;;;;;;5068753;28;20059;-75
2022/03/15 07:52:13;;;;;;;45.88;24.25;;;13.40;99.90;;;;;;5058591;28;20052;-75
2022/03/15 07:54:39;;;;;;;46.50;25.63;;;13.10;99.90;;;;;;5074169;28;20040;-75
2022/03/15 07:57:04;;;;;;;45.05;24.73;;;14.00;99.90;;;;;;5064956;28;20421;-76
2022/03/15 07:59:30;;;;;;;49.28;26.40;;;13.80;99.90;;;;;;5079588;28;20033;-75
2022/03/15 08:01:56;;;;;;;46.17;25.05;;;14.10;99.90;;;;;;5032446;28;20029;-75
2022/03/15 08:04:21;;;;;;;51.03;28.08;;;13.90;99.90;;;;;;5061797;28;20316;-72
2022/03/15 08:06:47;;;;;;;51.33;27.55;;;13.30;99.90;;;;;;5067007;28;20033;-73
2022/03/15 08:09:14;;;;;;;51.08;29.63;;;13.40;99.90;;;;;;5065556;28;20119;-73
2022/03/15 08:11:45;;;;;;;52.55;29.60;;;14.60;99.90;;;;;;5065254;28;20041;-74
2022/03/15 08:14:11;;;;;;;51.83;27.88;;;13.60;99.90;;;;;;5031707;28;20037;-72
2022/03/15 08:16:37;;;;;;;47.45;26.52;;;13.90;99.90;;;;;;5065183;28;20055;-72
2022/03/15 08:19:04;;;;;;;47.90;27.27;;;14.40;99.90;;;;;;5077038;28;20044;-72
2022/03/15 08:21:31;;;;;;;46.00;26.90;;;13.90;99.90;;;;;;5051953;28;20064;-72
2022/03/15 08:23:57;;;;;;;53.60;27.50;;;14.50;99.90;;;;;;5066983;28;20029;-72
2022/03/15 08:26:23;;;;;;;47.25;28.17;;;13.40;99.90;;;;;;5012872;28;20235;-73
2022/03/15 08:28:49;;;;;;;55.92;29.95;;;13.60;99.90;;;;;;5065526;28;20032;-73
2022/03/15 08:31:16;;;;;;;59.15;30.17;;;14.00;99.90;;;;;;5034682;28;20037;-73
2022/03/15 08:33:43;;;;;;;46.20;26.52;;;13.40;99.90;;;;;;5079045;28;20068;-73
2022/03/15 08:36:08;;;;;;;50.65;27.33;;;13.90;99.90;;;;;;5068507;28;20310;-73
2022/03/15 08:38:34;;;;;;;45.22;27.23;;;14.70;99.90;;;;;;5047409;28;20056;-74
2022/03/15 08:41:01;;;;;;;48.35;26.73;;;13.90;99.90;;;;;;5047216;28;20265;-73
2022/03/15 08:43:26;;;;;;;52.72;28.25;;;13.30;99.90;;;;;;5081536;28;20045;-75
2022/03/15 08:45:52;;;;;;;50.05;26.52;;;14.50;99.90;;;;;;5080937;28;20099;-75
2022/03/15 08:48:18;;;;;;;47.83;26.65;;;13.20;99.90;;;;;;5064625;28;20033;-74
2022/03/15 08:50:44;;;;;;;53.25;28.95;;;14.60;99.90;;;;;;5065157;28;20085;-74
2022/03/15 08:53:10;;;;;;;50.80;27.50;;;14.40;99.90;;;;;;5065037;28;20086;-73
2022/03/15 08:55:36;;;;;;;46.15;28.02;;;13.00;99.90;;;;;;5060515;28;20254;-74
2022/03/15 08:58:13;;;;;;;;;;;;;;;;;;;;;
2022/03/15 09:00:54;;;;;;;52.75;28.70;;;14.00;99.90;;;;;;5078990;28;20107;-74
2022/03/15 09:03:23;;;;;;;51.47;27.30;;;13.90;99.90;;;;;;5064255;28;20051;-74
2022/03/15 09:05:58;;;;;;;46.80;26.63;;;13.60;99.90;;;;;;5053903;28;20097;-74
2022/03/15 09:08:23;;;;;;;45.42;26.05;;;13.80;99.90;;;;;;5047687;28;20090;-74
2022/03/15 09:10:51;;;;;;;49.88;28.38;;;12.90;99.90;;;;;;5081269;28;20057;-74
2022/03/15 09:13:23;;;;;;;47.05;28.02;;;12.90;99.90;;;;;;5064377;28;20044;-74
2022/03/15 09:15:49;;;;;;;45.60;26.23;;;12.60;99.90;;;;;;5046294;28;20028;-73
2022/03/15 09:18:16;;;;;;;40.72;25.75;;;13.00;99.90;;;;;;5064336;28;20032;-73
2022/03/15 09:20:44;;;;;;;43.85;23.75;;;13.70;99.90;;;;;;5048879;28;20028;-73
2022/03/15 09:23:10;;;;;;;44.95;26.25;;;13.50;99.90;;;;;;5047651;28;20029;-72
2022/03/15 09:25:36;;;;;;;49.08;25.23;;;13.40;99.90;;;;;;5064370;28;20044;-73
2022/03/15 09:28:02;;;;;;;41.50;25.08;;;13.40;99.90;;;;;;5080464;28;20044;-73
2022/03/15 09:30:32;;;;;;;50.03;26.80;;;12.90;99.90;;;;;;5064137;28;20036;-73
2022/03/15 09:32:58;;;;;;;45.20;26.63;;;13.50;99.90;;;;;;5080988;28;20123;-74
2022/03/15 09:35:24;;;;;;;44.78;26.25;;;13.30;99.90;;;;;;5080360;28;20048;-73
2022/03/15 09:37:50;;;;;;;45.22;27.48;;;12.80;99.90;;;;;;5060561;28;20039;-74
2022/03/15 09:40:22;;;;;;;40.95;25.67;;;13.00;99.90;;;;;;5060315;28;20041;-74
2022/03/15 09:42:50;;;;;;;40.97;25.33;;;12.50;99.90;;;;;;5044226;28;20303;-74
2022/03/15 09:45:20;;;;;;;41.28;27.50;;;12.60;99.90;;;;;;5058823;28;20251;-73
2022/03/15 09:47:55;;;;;;;41.72;27.20;;;13.00;99.90;;;;;;5060774;28;20033;-73
2022/03/15 09:50:21;;;;;;;35.90;24.58;;;13.80;99.90;;;;;;5043950;28;20170;-74
2022/03/15 09:52:48;;;;;;;35.67;23.00;;;12.00;99.90;;;;;;5060626;28;20192;-74
2022/03/15 09:55:13;;;;;;;35.70;22.83;;;12.50;99.90;;;;;;5027691;28;20053;-74
2022/03/15 09:57:40;;;;;;;36.22;23.73;;;12.30;99.90;;;;;;5058385;28;20222;-73
2022/03/15 10:00:08;;;;;;;34.97;23.05;;;11.50;99.90;;;;;;5047177;28;20059;-73
2022/03/15 10:02:41;;;;;;;33.00;21.75;;;11.40;99.90;;;;;;5063703;28;20048;-74
2022/03/15 10:05:08;;;;;;;34.80;23.20;;;11.30;99.90;;;;;;5063470;28;20369;-74
2022/03/15 10:07:37;;;;;;;36.13;22.23;;;12.00;99.90;;;;;;5068613;28;20049;-75
2022/03/15 10:10:15;;;;;;;36.20;21.63;;;11.90;99.90;;;;;;5043444;28;20056;-74
2022/03/15 10:12:41;;;;;;;32.20;22.80;;;11.90;99.90;;;;;;5060386;28;20033;-74
2022/03/15 10:15:16;;;;;;;35.60;22.33;;;12.10;99.90;;;;;;5043753;28;20110;-74
2022/03/15 10:17:49;;;;;;;;;;;12.00;99.90;;;;;;5055498;28;20047;-74
2022/03/15 10:20:19;;;;;;;30.50;20.80;;;11.30;99.90;;;;;;5043704;28;20110;-74
2022/03/15 10:22:53;;;;;;;34.00;21.23;;;11.90;99.90;;;;;;5043606;28;20109;-74
2022/03/15 10:25:21;;;;;;;33.85;22.65;;;11.60;99.90;;;;;;5059673;28;20361;-74
2022/03/15 10:27:53;;;;;;;30.13;20.17;;;11.90;99.90;;;;;;5043973;28;20247;-74
2022/03/15 10:30:22;;;;;;;30.13;20.20;;;12.40;99.90;;;;;;5069010;28;20044;-75
2022/03/15 10:32:53;;;;;;;34.38;20.00;;;11.90;99.90;;;;;;5078709;28;20071;-74
2022/03/15 10:35:27;;;;;;;30.08;20.45;;;12.10;99.90;;;;;;5063733;28;20058;-74
2022/03/15 10:37:55;;;;;;;29.25;19.73;;;11.90;99.90;;;;;;5079690;28;20082;-74
2022/03/15 10:40:41;;;;;;;28.50;18.38;;;11.80;99.90;;;;;;5072604;28;20155;-74
2022/03/15 10:43:12;;;;;;;31.27;19.63;;;11.20;99.90;;;;;;5060820;28;20037;-74
2022/03/15 10:45:46;;;;;;;27.88;17.80;;;11.90;99.90;;;;;;5059728;28;20047;-74
2022/03/15 10:48:21;;;;;;;26.92;18.40;;;11.50;99.90;;;;;;5060726;28;20178;-74
2022/03/15 10:50:52;;;;;;;25.45;17.20;;;11.40;99.90;;;;;;5062996;28;20079;-73
2022/03/15 10:53:18;;;;;;;24.27;16.00;;;11.60;99.90;;;;;;5062919;28;20107;-73
2022/03/15 10:55:44;;;;;;;25.60;16.38;;;11.60;99.90;;;;;;5069053;28;20102;-73
2022/03/15 10:58:12;;;;;;;25.42;15.75;;;11.40;99.90;;;;;;5062164;28;20095;-72
2022/03/15 11:00:41;;;;;;;20.33;14.95;;;11.40;99.90;;;;;;5059328;28;20398;-73
2022/03/15 11:03:19;;;;;;;21.77;15.55;;;11.10;99.90;;;;;;5042731;28;20108;-75
2022/03/15 11:05:48;;;;;;;22.60;16.10;;;10.90;99.90;;;;;;5044226;28;20045;-75
2022/03/15 11:08:15;;;;;;;28.05;16.50;;;11.10;99.90;;;;;;5071353;28;20269;-75
2022/03/15 11:10:45;;;;;;;24.42;16.50;;;11.00;99.90;;;;;;5062461;28;20056;-75
2022/03/15 11:13:12;;;;;;;25.65;18.10;;;11.00;99.90;;;;;;5079348;28;20048;-74
2022/03/15 11:15:42;;;;;;;28.30;18.65;;;11.50;99.90;;;;;;5045972;28;20269;-74
2022/03/15 11:18:11;;;;;;;28.33;17.58;;;11.20;99.90;;;;;;5061866;28;20047;-74
2022/03/15 11:20:40;;;;;;;25.20;16.20;;;11.40;99.90;;;;;;5058444;28;20049;-74
2022/03/15 11:23:11;;;;;;;28.50;18.73;;;11.10;99.90;;;;;;5058987;28;20104;-74
2022/03/15 11:25:40;;;;;;;24.55;18.02;;;12.10;99.90;;;;;;5042401;28;20037;-76
2022/03/15 11:28:14;;;;;;;24.85;17.00;;;12.00;99.90;;;;;;5065032;28;20104;-72
2022/03/15 11:30:42;;;;;;;27.95;17.08;;;12.00;99.90;;;;;;5062208;28;20045;-74
2022/03/15 11:33:09;;;;;;;25.50;17.13;;;12.50;99.90;;;;;;5078399;28;20055;-73
2022/03/15 11:35:37;;;;;;;26.98;16.48;;;12.70;99.90;;;;;;5078938;28;20364;-72
2022/03/15 11:38:07;;;;;;;22.15;14.93;;;11.90;99.90;;;;;;5078858;28;20233;-74
2022/03/15 11:40:33;;;;;;;25.67;16.45;;;12.60;99.90;;;;;;5078899;28;20033;-73
2022/03/15 11:43:09;;;;;;;22.38;15.48;;;12.40;99.90;;;;;;5078920;28;20192;-73
2022/03/15 11:45:59;;;;;;;22.50;15.20;;;12.60;99.90;;;;;;5061906;28;20123;-73
2022/03/15 11:48:47;;;;;;;22.30;14.88;;;11.90;99.90;;;;;;5061787;28;20037;-75
2022/03/15 11:51:47;;;;;;;22.95;16.05;;;12.20;99.90;;;;;;5062075;28;20079;-75
2022/03/15 11:54:30;;;;;;;24.08;14.80;;;12.10;99.90;;;;;;5078777;28;20060;-75
2022/03/15 11:57:40;;;;;;;29.80;19.10;;;12.10;99.90;;;;;;5078805;28;20116;-76
2022/03/15 12:00:06;;;;;;;23.58;17.48;;;11.70;99.90;;;;;;5049504;28;20110;-75
2022/03/15 12:02:40;;;;;;;30.95;19.35;;;12.30;99.90;;;;;;5042118;28;20045;-74
2022/03/15 12:05:18;;;;;;;27.02;18.98;;;12.20;99.90;;;;;;5058875;28;20156;-77
2022/03/15 12:08:12;;;;;;;27.85;19.23;;;12.50;99.90;;;;;;5043239;28;20092;-76
2022/03/15 12:10:43;;;;;;;29.88;17.77;;;12.50;99.90;;;;;;5059623;28;20252;-76
2022/03/15 12:13:11;;;;;;;26.17;17.90;;;13.00;99.90;;;;;;5065451;28;20047;-75
2022/03/15 12:15:39;;;;;;;28.38;17.58;;;12.90;99.90;;;;;;5048985;28;20044;-74
2022/03/15 12:18:23;;;;;;;28.58;18.00;;;13.10;99.90;;;;;;5082198;28;20325;-74
2022/03/15 12:21:02;;;;;;;25.35;17.13;;;13.40;99.90;;;;;;5055602;28;20063;-75
2022/03/15 12:24:09;;;;;;;24.75;17.40;;;13.20;99.90;;;;;;5045860;28;20114;-75
2022/03/15 12:26:45;;;;;;;25.92;16.92;;;13.10;99.90;;;;;;5058038;28;20104;-74
2022/03/15 12:29:48;;;;;;;20.73;15.10;;;13.90;99.90;;;;;;5046870;28;20068;-76
2022/03/15 12:32:19;;;;;;;22.27;15.98;;;14.60;99.90;;;;;;5063769;28;20028;-74
2022/03/15 12:38:33;;;;;;;;;;;;;;;;;;;;;
2022/03/15 12:41:30;;;;;;;25.65;15.32;;;13.50;99.90;;;;;;5082695;28;20100;-75
2022/03/15 12:43:55;;;;;;;23.30;15.05;;;12.30;99.90;;;;;;5048251;28;20348;-73